sensor_id;sensor_type;location;lat;lon;timestamp;temperature;humidity
32187;DHT22;18686;53.084;8.872;2023-02-20T00:01:08;7.00;99.90
32187;DHT22;18686;53.084;8.872;2023-02-20T00:03:36;7.00;99.90
32187;DHT22;18686;53.084;8.872;2023-02-20T00:06:07;7.00;99.90
32187;DHT22;18686;53.084;8.872;2023-02-20T00:08:35;7.00;99.90
32187;DHT22;18686;53.084;8.872;2023-02-20T00:11:04;7.00;99.90
32187;DHT22;18686;53.084;8.872;2023-02-20T00:13:34;7.00;99.90
32187;DHT22;18686;53.084;8.872;2023-02-20T00:16:02;7.00;99.90
32187;DHT22;18686;53.084;8.872;2023-02-20T00:18:31;7.00;99.90
32187;DHT22;18686;53.084;8.872;2023-02-20T00:20:59;7.00;99.90
32187;DHT22;18686;53.084;8.872;2023-02-20T00:23:27;7.00;99.90
32187;DHT22;18686;53.084;8.872;2023-02-20T00:25:59;7.00;99.90
32187;DHT22;18686;53.084;8.872;2023-02-20T00:28:27;7.00;99.90
32187;DHT22;18686;53.084;8.872;2023-02-20T00:30:57;6.90;99.90
32187;DHT22;18686;53.084;8.872;2023-02-20T00:33:25;6.90;99.90
32187;DHT22;18686;53.084;8.872;2023-02-20T00:35:53;6.90;99.90
32187;DHT22;18686;53.084;8.872;2023-02-20T00:38:22;6.90;99.90
32187;DHT22;18686;53.084;8.872;2023-02-20T00:40:50;6.90;99.90
32187;DHT22;18686;53.084;8.872;2023-02-20T00:43:18;6.90;99.90
32187;DHT22;18686;53.084;8.872;2023-02-20T00:45:46;7.00;99.90
32187;DHT22;18686;53.084;8.872;2023-02-20T00:48:16;7.00;99.90
32187;DHT22;18686;53.084;8.872;2023-02-20T00:50:45;7.00;99.90
32187;DHT22;18686;53.084;8.872;2023-02-20T00:53:13;7.00;99.90
32187;DHT22;18686;53.084;8.872;2023-02-20T00:55:41;7.00;99.90
32187;DHT22;18686;53.084;8.872;2023-02-20T00:58:10;7.00;99.90
32187;DHT22;18686;53.084;8.872;2023-02-20T01:00:38;7.00;99.90
32187;DHT22;18686;53.084;8.872;2023-02-20T01:03:06;7.00;99.90
32187;DHT22;18686;53.084;8.872;2023-02-20T01:05:37;7.00;99.90
32187;DHT22;18686;53.084;8.872;2023-02-20T01:08:06;7.00;99.90
32187;DHT22;18686;53.084;8.872;2023-02-20T01:10:35;7.00;99.90
32187;DHT22;18686;53.084;8.872;2023-02-20T01:13:03;7.00;99.90
32187;DHT22;18686;53.084;8.872;2023-02-20T01:15:31;7.00;99.90
32187;DHT22;18686;53.084;8.872;2023-02-20T01:18:00;7.00;99.90
32187;DHT22;18686;53.084;8.872;2023-02-20T01:20:28;7.00;99.90
32187;DHT22;18686;53.084;8.872;2023-02-20T01:22:58;7.00;99.90
32187;DHT22;18686;53.084;8.872;2023-02-20T01:25:26;7.00;99.90
32187;DHT22;18686;53.084;8.872;2023-02-20T01:27:54;7.00;99.90
32187;DHT22;18686;53.084;8.872;2023-02-20T01:30:22;7.00;99.90
32187;DHT22;18686;53.084;8.872;2023-02-20T01:32:51;7.00;99.90
32187;DHT22;18686;53.084;8.872;2023-02-20T01:35:19;7.00;99.90
32187;DHT22;18686;53.084;8.872;2023-02-20T01:37:47;7.00;99.90
32187;DHT22;18686;53.084;8.872;2023-02-20T01:40:19;7.00;99.90
32187;DHT22;18686;53.084;8.872;2023-02-20T01:42:49;7.10;99.90
32187;DHT22;18686;53.084;8.872;2023-02-20T01:45:27;7.10;99.90
32187;DHT22;18686;53.084;8.872;2023-02-20T01:47:56;7.10;99.90
32187;DHT22;18686;53.084;8.872;2023-02-20T01:50:29;7.10;99.90
32187;DHT22;18686;53.084;8.872;2023-02-20T01:53:02;7.10;99.90
32187;DHT22;18686;53.084;8.872;2023-02-20T01:55:38;7.10;99.90
32187;DHT22;18686;53.084;8.872;2023-02-20T01:58:11;7.10;99.90
32187;DHT22;18686;53.084;8.872;2023-02-20T02:00:40;7.20;99.90
32187;DHT22;18686;53.084;8.872;2023-02-20T02:03:13;7.10;99.90
32187;DHT22;18686;53.084;8.872;2023-02-20T02:05:45;7.10;99.90
32187;DHT22;18686;53.084;8.872;2023-02-20T02:08:15;7.10;99.90
32187;DHT22;18686;53.084;8.872;2023-02-20T02:10:50;7.10;99.90
32187;DHT22;18686;53.084;8.872;2023-02-20T02:13:19;7.20;99.90
32187;DHT22;18686;53.084;8.872;2023-02-20T02:15:50;7.20;99.90
32187;DHT22;18686;53.084;8.872;2023-02-20T02:18:42;7.20;99.90
32187;DHT22;18686;53.084;8.872;2023-02-20T02:25:04;7.30;99.90
32187;DHT22;18686;53.084;8.872;2023-02-20T02:28:01;7.30;99.90
32187;DHT22;18686;53.084;8.872;2023-02-20T02:34:17;7.40;99.90
32187;DHT22;18686;53.084;8.872;2023-02-20T02:36:58;7.40;99.90
32187;DHT22;18686;53.084;8.872;2023-02-20T02:39:37;7.40;99.90
32187;DHT22;18686;53.084;8.872;2023-02-20T02:42:15;7.50;99.90
32187;DHT22;18686;53.084;8.872;2023-02-20T02:44:51;7.50;99.90
32187;DHT22;18686;53.084;8.872;2023-02-20T02:47:25;7.60;99.90
32187;DHT22;18686;53.084;8.872;2023-02-20T02:50:00;7.60;99.90
32187;DHT22;18686;53.084;8.872;2023-02-20T02:52:32;7.60;99.90
32187;DHT22;18686;53.084;8.872;2023-02-20T02:55:16;7.60;99.90
32187;DHT22;18686;53.084;8.872;2023-02-20T02:57:46;7.60;99.90
32187;DHT22;18686;53.084;8.872;2023-02-20T03:00:17;7.60;99.90
32187;DHT22;18686;53.084;8.872;2023-02-20T03:02:53;7.60;99.90
32187;DHT22;18686;53.084;8.872;2023-02-20T03:05:27;7.50;99.90
32187;DHT22;18686;53.084;8.872;2023-02-20T03:08:14;7.50;99.90
32187;DHT22;18686;53.084;8.872;2023-02-20T03:10:50;7.50;99.90
32187;DHT22;18686;53.084;8.872;2023-02-20T03:13:24;7.50;99.90
32187;DHT22;18686;53.084;8.872;2023-02-20T03:16:11;7.50;99.90
32187;DHT22;18686;53.084;8.872;2023-02-20T03:18:42;7.50;99.90
32187;DHT22;18686;53.084;8.872;2023-02-20T03:21:18;7.50;99.90
32187;DHT22;18686;53.084;8.872;2023-02-20T03:23:54;7.50;99.90
32187;DHT22;18686;53.084;8.872;2023-02-20T03:26:29;7.60;99.90
32187;DHT22;18686;53.084;8.872;2023-02-20T03:29:02;7.60;99.90
32187;DHT22;18686;53.084;8.872;2023-02-20T03:31:38;7.60;99.90
32187;DHT22;18686;53.084;8.872;2023-02-20T03:34:12;7.60;99.90
32187;DHT22;18686;53.084;8.872;2023-02-20T03:37:00;7.60;99.90
32187;DHT22;18686;53.084;8.872;2023-02-20T03:39:51;7.60;99.90
32187;DHT22;18686;53.084;8.872;2023-02-20T03:42:42;7.60;99.90
32187;DHT22;18686;53.084;8.872;2023-02-20T03:45:35;7.60;99.90
32187;DHT22;18686;53.084;8.872;2023-02-20T03:48:09;7.60;99.90
32187;DHT22;18686;53.084;8.872;2023-02-20T03:50:39;7.60;99.90
32187;DHT22;18686;53.084;8.872;2023-02-20T03:53:29;7.50;99.90
32187;DHT22;18686;53.084;8.872;2023-02-20T03:56:02;7.40;99.90
32187;DHT22;18686;53.084;8.872;2023-02-20T03:58:34;7.40;99.90
32187;DHT22;18686;53.084;8.872;2023-02-20T04:01:05;7.40;99.90
32187;DHT22;18686;53.084;8.872;2023-02-20T04:03:37;7.40;99.90
32187;DHT22;18686;53.084;8.872;2023-02-20T04:06:09;7.40;99.90
32187;DHT22;18686;53.084;8.872;2023-02-20T04:08:43;7.40;99.90
32187;DHT22;18686;53.084;8.872;2023-02-20T04:11:16;7.40;99.90
32187;DHT22;18686;53.084;8.872;2023-02-20T04:13:46;7.40;99.90
32187;DHT22;18686;53.084;8.872;2023-02-20T04:16:15;7.30;99.90
32187;DHT22;18686;53.084;8.872;2023-02-20T04:18:44;7.30;99.90
32187;DHT22;18686;53.084;8.872;2023-02-20T04:21:18;7.30;99.90
32187;DHT22;18686;53.084;8.872;2023-02-20T04:23:53;7.30;99.90
32187;DHT22;18686;53.084;8.872;2023-02-20T04:26:26;7.30;99.90
32187;DHT22;18686;53.084;8.872;2023-02-20T04:28:55;7.20;99.90
32187;DHT22;18686;53.084;8.872;2023-02-20T04:31:24;7.30;99.90
32187;DHT22;18686;53.084;8.872;2023-02-20T04:33:53;7.20;99.90
32187;DHT22;18686;53.084;8.872;2023-02-20T04:36:23;7.30;99.90
32187;DHT22;18686;53.084;8.872;2023-02-20T04:38:54;7.30;99.90
32187;DHT22;18686;53.084;8.872;2023-02-20T04:41:28;7.30;99.90
32187;DHT22;18686;53.084;8.872;2023-02-20T04:43:57;7.30;99.90
32187;DHT22;18686;53.084;8.872;2023-02-20T04:46:39;7.40;99.90
32187;DHT22;18686;53.084;8.872;2023-02-20T04:49:07;7.30;99.90
32187;DHT22;18686;53.084;8.872;2023-02-20T04:51:37;7.40;99.90
32187;DHT22;18686;53.084;8.872;2023-02-20T04:54:05;7.40;99.90
32187;DHT22;18686;53.084;8.872;2023-02-20T04:56:35;7.40;99.90
32187;DHT22;18686;53.084;8.872;2023-02-20T04:59:04;7.40;99.90
32187;DHT22;18686;53.084;8.872;2023-02-20T05:01:32;7.30;99.90
32187;DHT22;18686;53.084;8.872;2023-02-20T05:04:00;7.40;99.90
32187;DHT22;18686;53.084;8.872;2023-02-20T05:06:28;7.40;99.90
32187;DHT22;18686;53.084;8.872;2023-02-20T05:08:57;7.40;99.90
32187;DHT22;18686;53.084;8.872;2023-02-20T05:11:25;7.40;99.90
32187;DHT22;18686;53.084;8.872;2023-02-20T05:13:54;7.30;99.90
32187;DHT22;18686;53.084;8.872;2023-02-20T05:16:23;7.40;99.90
32187;DHT22;18686;53.084;8.872;2023-02-20T05:18:51;7.40;99.90
32187;DHT22;18686;53.084;8.872;2023-02-20T05:21:19;7.40;99.90
32187;DHT22;18686;53.084;8.872;2023-02-20T05:24:05;7.40;99.90
32187;DHT22;18686;53.084;8.872;2023-02-20T05:26:35;7.40;99.90
32187;DHT22;18686;53.084;8.872;2023-02-20T05:29:05;7.40;99.90
32187;DHT22;18686;53.084;8.872;2023-02-20T05:31:36;7.40;99.90
32187;DHT22;18686;53.084;8.872;2023-02-20T05:34:04;7.30;99.90
32187;DHT22;18686;53.084;8.872;2023-02-20T05:36:32;7.40;99.90
32187;DHT22;18686;53.084;8.872;2023-02-20T05:39:01;7.30;99.90
32187;DHT22;18686;53.084;8.872;2023-02-20T05:41:30;7.30;99.90
32187;DHT22;18686;53.084;8.872;2023-02-20T05:43:58;7.30;99.90
32187;DHT22;18686;53.084;8.872;2023-02-20T05:46:28;7.20;99.90
32187;DHT22;18686;53.084;8.872;2023-02-20T05:48:56;7.20;99.90
32187;DHT22;18686;53.084;8.872;2023-02-20T05:51:27;7.20;99.90
32187;DHT22;18686;53.084;8.872;2023-02-20T05:53:55;7.20;99.90
32187;DHT22;18686;53.084;8.872;2023-02-20T05:56:24;7.20;99.90
32187;DHT22;18686;53.084;8.872;2023-02-20T05:58:52;7.10;99.90
32187;DHT22;18686;53.084;8.872;2023-02-20T06:01:24;7.10;99.90
32187;DHT22;18686;53.084;8.872;2023-02-20T06:03:54;7.10;99.90
32187;DHT22;18686;53.084;8.872;2023-02-20T06:06:22;7.10;99.90
32187;DHT22;18686;53.084;8.872;2023-02-20T06:08:50;7.00;99.90
32187;DHT22;18686;53.084;8.872;2023-02-20T06:11:19;7.00;99.90
32187;DHT22;18686;53.084;8.872;2023-02-20T06:13:47;7.00;99.90
32187;DHT22;18686;53.084;8.872;2023-02-20T06:16:21;7.00;99.90
32187;DHT22;18686;53.084;8.872;2023-02-20T06:18:50;7.00;99.90
32187;DHT22;18686;53.084;8.872;2023-02-20T06:21:20;6.90;99.90
32187;DHT22;18686;53.084;8.872;2023-02-20T06:23:50;7.00;99.90
32187;DHT22;18686;53.084;8.872;2023-02-20T06:26:20;7.00;99.90
32187;DHT22;18686;53.084;8.872;2023-02-20T06:28:48;7.10;99.90
32187;DHT22;18686;53.084;8.872;2023-02-20T06:31:22;7.10;99.90
32187;DHT22;18686;53.084;8.872;2023-02-20T06:33:50;7.20;99.90
32187;DHT22;18686;53.084;8.872;2023-02-20T06:36:23;7.30;99.90
32187;DHT22;18686;53.084;8.872;2023-02-20T06:38:51;7.40;99.90
32187;DHT22;18686;53.084;8.872;2023-02-20T06:41:24;7.50;99.90
32187;DHT22;18686;53.084;8.872;2023-02-20T06:43:53;7.50;99.90
32187;DHT22;18686;53.084;8.872;2023-02-20T06:46:21;7.60;99.90
32187;DHT22;18686;53.084;8.872;2023-02-20T06:48:51;7.70;99.90
32187;DHT22;18686;53.084;8.872;2023-02-20T06:51:23;7.80;99.90
32187;DHT22;18686;53.084;8.872;2023-02-20T06:53:51;7.80;99.90
32187;DHT22;18686;53.084;8.872;2023-02-20T06:56:21;7.80;99.90
32187;DHT22;18686;53.084;8.872;2023-02-20T06:58:51;7.90;99.90
32187;DHT22;18686;53.084;8.872;2023-02-20T07:01:21;7.90;99.90
32187;DHT22;18686;53.084;8.872;2023-02-20T07:03:50;8.00;99.90
32187;DHT22;18686;53.084;8.872;2023-02-20T07:06:20;8.00;99.90
32187;DHT22;18686;53.084;8.872;2023-02-20T07:08:49;8.00;99.90
32187;DHT22;18686;53.084;8.872;2023-02-20T07:11:19;8.00;99.90
32187;DHT22;18686;53.084;8.872;2023-02-20T07:13:49;8.00;99.90
32187;DHT22;18686;53.084;8.872;2023-02-20T07:16:18;8.00;99.90
32187;DHT22;18686;53.084;8.872;2023-02-20T07:18:47;8.00;99.90
32187;DHT22;18686;53.084;8.872;2023-02-20T07:21:15;8.10;99.90
32187;DHT22;18686;53.084;8.872;2023-02-20T07:23:45;8.10;99.90
32187;DHT22;18686;53.084;8.872;2023-02-20T07:26:18;8.20;99.90
32187;DHT22;18686;53.084;8.872;2023-02-20T07:28:47;8.10;99.90
32187;DHT22;18686;53.084;8.872;2023-02-20T07:31:15;8.20;99.90
32187;DHT22;18686;53.084;8.872;2023-02-20T07:33:43;8.10;99.90
32187;DHT22;18686;53.084;8.872;2023-02-20T07:36:13;8.20;99.90
32187;DHT22;18686;53.084;8.872;2023-02-20T07:38:42;8.20;99.90
32187;DHT22;18686;53.084;8.872;2023-02-20T07:41:14;8.20;99.90
32187;DHT22;18686;53.084;8.872;2023-02-20T07:43:43;8.20;99.90
32187;DHT22;18686;53.084;8.872;2023-02-20T07:46:12;8.30;99.90
32187;DHT22;18686;53.084;8.872;2023-02-20T07:48:41;8.30;99.90
32187;DHT22;18686;53.084;8.872;2023-02-20T07:51:09;8.40;99.90
32187;DHT22;18686;53.084;8.872;2023-02-20T07:53:38;8.40;99.90
32187;DHT22;18686;53.084;8.872;2023-02-20T07:56:06;8.40;99.90
32187;DHT22;18686;53.084;8.872;2023-02-20T07:58:36;8.40;99.90
32187;DHT22;18686;53.084;8.872;2023-02-20T08:01:04;8.40;99.90
32187;DHT22;18686;53.084;8.872;2023-02-20T08:03:32;8.40;99.90
32187;DHT22;18686;53.084;8.872;2023-02-20T08:06:01;8.40;99.90
32187;DHT22;18686;53.084;8.872;2023-02-20T08:08:29;8.40;99.90
32187;DHT22;18686;53.084;8.872;2023-02-20T08:10:57;8.40;99.90
32187;DHT22;18686;53.084;8.872;2023-02-20T08:13:37;8.40;99.90
32187;DHT22;18686;53.084;8.872;2023-02-20T08:16:06;8.50;99.90
32187;DHT22;18686;53.084;8.872;2023-02-20T08:18:34;8.50;99.90
32187;DHT22;18686;53.084;8.872;2023-02-20T08:21:02;8.60;99.90
32187;DHT22;18686;53.084;8.872;2023-02-20T08:23:31;8.60;99.90
32187;DHT22;18686;53.084;8.872;2023-02-20T08:26:02;8.60;99.90
32187;DHT22;18686;53.084;8.872;2023-02-20T08:28:30;8.70;99.90
32187;DHT22;18686;53.084;8.872;2023-02-20T08:31:00;8.70;99.90
32187;DHT22;18686;53.084;8.872;2023-02-20T08:33:28;8.70;99.90
32187;DHT22;18686;53.084;8.872;2023-02-20T08:35:56;8.80;99.90
32187;DHT22;18686;53.084;8.872;2023-02-20T08:38:28;8.80;99.90
32187;DHT22;18686;53.084;8.872;2023-02-20T08:40:57;8.90;99.90
32187;DHT22;18686;53.084;8.872;2023-02-20T08:43:25;8.90;99.90
32187;DHT22;18686;53.084;8.872;2023-02-20T08:45:54;8.90;99.90
32187;DHT22;18686;53.084;8.872;2023-02-20T08:48:24;8.90;99.90
32187;DHT22;18686;53.084;8.872;2023-02-20T08:50:52;8.90;99.90
32187;DHT22;18686;53.084;8.872;2023-02-20T08:53:21;9.00;99.90
32187;DHT22;18686;53.084;8.872;2023-02-20T08:55:49;9.00;99.90
32187;DHT22;18686;53.084;8.872;2023-02-20T08:58:18;9.00;99.90
32187;DHT22;18686;53.084;8.872;2023-02-20T09:00:48;9.10;99.90
32187;DHT22;18686;53.084;8.872;2023-02-20T09:03:16;9.10;99.90
32187;DHT22;18686;53.084;8.872;2023-02-20T09:05:46;9.10;99.90
32187;DHT22;18686;53.084;8.872;2023-02-20T09:08:16;9.10;99.90
32187;DHT22;18686;53.084;8.872;2023-02-20T09:10:45;9.10;99.90
32187;DHT22;18686;53.084;8.872;2023-02-20T09:13:13;9.20;99.90
32187;DHT22;18686;53.084;8.872;2023-02-20T09:15:41;9.10;99.90
32187;DHT22;18686;53.084;8.872;2023-02-20T09:18:11;9.10;99.90
32187;DHT22;18686;53.084;8.872;2023-02-20T09:20:40;9.10;99.90
32187;DHT22;18686;53.084;8.872;2023-02-20T09:23:10;9.20;99.90
32187;DHT22;18686;53.084;8.872;2023-02-20T09:25:38;9.30;99.90
32187;DHT22;18686;53.084;8.872;2023-02-20T09:28:06;9.30;99.90
32187;DHT22;18686;53.084;8.872;2023-02-20T09:30:35;9.30;99.90
32187;DHT22;18686;53.084;8.872;2023-02-20T09:33:04;9.30;99.90
32187;DHT22;18686;53.084;8.872;2023-02-20T09:35:32;9.30;99.90
32187;DHT22;18686;53.084;8.872;2023-02-20T09:38:00;9.30;99.90
32187;DHT22;18686;53.084;8.872;2023-02-20T09:40:30;9.30;99.90
32187;DHT22;18686;53.084;8.872;2023-02-20T09:43:08;9.40;99.90
32187;DHT22;18686;53.084;8.872;2023-02-20T09:45:42;9.40;99.90
32187;DHT22;18686;53.084;8.872;2023-02-20T09:48:20;9.40;99.90
32187;DHT22;18686;53.084;8.872;2023-02-20T09:50:53;9.50;99.90
32187;DHT22;18686;53.084;8.872;2023-02-20T09:53:24;9.40;99.90
32187;DHT22;18686;53.084;8.872;2023-02-20T09:55:56;9.50;99.90
32187;DHT22;18686;53.084;8.872;2023-02-20T09:58:27;9.50;99.90
32187;DHT22;18686;53.084;8.872;2023-02-20T10:01:00;9.50;99.90
32187;DHT22;18686;53.084;8.872;2023-02-20T10:03:32;9.50;99.90
32187;DHT22;18686;53.084;8.872;2023-02-20T10:06:10;9.60;99.90
32187;DHT22;18686;53.084;8.872;2023-02-20T10:08:41;9.60;99.90
32187;DHT22;18686;53.084;8.872;2023-02-20T10:11:22;9.70;99.90
32187;DHT22;18686;53.084;8.872;2023-02-20T10:13:57;9.80;99.90
32187;DHT22;18686;53.084;8.872;2023-02-20T10:16:33;9.80;99.90
32187;DHT22;18686;53.084;8.872;2023-02-20T10:19:13;9.90;99.90
32187;DHT22;18686;53.084;8.872;2023-02-20T10:21:53;9.90;99.90
32187;DHT22;18686;53.084;8.872;2023-02-20T10:24:41;10.00;99.90
32187;DHT22;18686;53.084;8.872;2023-02-20T10:27:23;10.00;99.90
32187;DHT22;18686;53.084;8.872;2023-02-20T10:29:53;10.00;99.90
32187;DHT22;18686;53.084;8.872;2023-02-20T10:32:29;10.10;99.90
32187;DHT22;18686;53.084;8.872;2023-02-20T10:35:02;10.10;99.90
32187;DHT22;18686;53.084;8.872;2023-02-20T10:37:34;10.10;99.90
32187;DHT22;18686;53.084;8.872;2023-02-20T10:40:19;10.10;99.90
32187;DHT22;18686;53.084;8.872;2023-02-20T10:42:57;10.10;99.90
32187;DHT22;18686;53.084;8.872;2023-02-20T10:45:34;10.10;99.90
32187;DHT22;18686;53.084;8.872;2023-02-20T10:48:06;10.10;99.90
32187;DHT22;18686;53.084;8.872;2023-02-20T10:50:39;10.10;99.90
32187;DHT22;18686;53.084;8.872;2023-02-20T10:53:15;10.10;99.90
32187;DHT22;18686;53.084;8.872;2023-02-20T10:55:49;10.10;99.90
32187;DHT22;18686;53.084;8.872;2023-02-20T10:58:25;10.10;99.90
32187;DHT22;18686;53.084;8.872;2023-02-20T11:00:57;10.20;99.90
32187;DHT22;18686;53.084;8.872;2023-02-20T11:03:31;10.20;99.90
32187;DHT22;18686;53.084;8.872;2023-02-20T11:06:03;10.20;99.90
32187;DHT22;18686;53.084;8.872;2023-02-20T11:08:33;10.20;99.90
32187;DHT22;18686;53.084;8.872;2023-02-20T11:11:22;10.30;99.90
32187;DHT22;18686;53.084;8.872;2023-02-20T11:13:52;10.30;99.90
32187;DHT22;18686;53.084;8.872;2023-02-20T11:16:24;10.30;99.90
32187;DHT22;18686;53.084;8.872;2023-02-20T11:19:08;10.30;99.90
32187;DHT22;18686;53.084;8.872;2023-02-20T11:21:39;10.30;99.90
32187;DHT22;18686;53.084;8.872;2023-02-20T11:24:20;10.30;99.90
32187;DHT22;18686;53.084;8.872;2023-02-20T11:26:50;10.30;99.90
32187;DHT22;18686;53.084;8.872;2023-02-20T11:29:24;10.30;99.90
32187;DHT22;18686;53.084;8.872;2023-02-20T11:31:52;10.30;99.90
32187;DHT22;18686;53.084;8.872;2023-02-20T11:34:23;10.30;99.90
32187;DHT22;18686;53.084;8.872;2023-02-20T11:36:53;10.30;99.90
32187;DHT22;18686;53.084;8.872;2023-02-20T11:39:25;10.30;99.90
32187;DHT22;18686;53.084;8.872;2023-02-20T11:42:06;10.30;99.90
32187;DHT22;18686;53.084;8.872;2023-02-20T11:44:39;10.20;99.90
32187;DHT22;18686;53.084;8.872;2023-02-20T11:47:20;10.20;99.90
32187;DHT22;18686;53.084;8.872;2023-02-20T11:49:49;10.20;99.90
32187;DHT22;18686;53.084;8.872;2023-02-20T11:53:00;10.20;99.90
32187;DHT22;18686;53.084;8.872;2023-02-20T11:55:31;10.20;99.90
32187;DHT22;18686;53.084;8.872;2023-02-20T11:57:59;10.20;99.90
32187;DHT22;18686;53.084;8.872;2023-02-20T12:00:43;10.20;99.90
32187;DHT22;18686;53.084;8.872;2023-02-20T12:03:13;10.20;99.90
32187;DHT22;18686;53.084;8.872;2023-02-20T12:05:46;10.20;99.90
32187;DHT22;18686;53.084;8.872;2023-02-20T12:08:42;10.20;99.90
32187;DHT22;18686;53.084;8.872;2023-02-20T12:11:15;10.20;99.90
32187;DHT22;18686;53.084;8.872;2023-02-20T12:13:45;10.20;99.90
32187;DHT22;18686;53.084;8.872;2023-02-20T12:16:36;10.30;99.90
32187;DHT22;18686;53.084;8.872;2023-02-20T12:19:12;10.30;99.90
32187;DHT22;18686;53.084;8.872;2023-02-20T12:21:54;10.30;99.90
32187;DHT22;18686;53.084;8.872;2023-02-20T12:24:46;10.40;99.90
32187;DHT22;18686;53.084;8.872;2023-02-20T12:27:34;10.40;99.90
32187;DHT22;18686;53.084;8.872;2023-02-20T12:30:18;10.40;99.90
32187;DHT22;18686;53.084;8.872;2023-02-20T12:32:57;10.50;99.90
32187;DHT22;18686;53.084;8.872;2023-02-20T12:35:32;10.50;99.90
32187;DHT22;18686;53.084;8.872;2023-02-20T12:38:17;10.50;99.90
32187;DHT22;18686;53.084;8.872;2023-02-20T12:41:05;10.50;99.90
32187;DHT22;18686;53.084;8.872;2023-02-20T12:43:42;10.50;99.90
32187;DHT22;18686;53.084;8.872;2023-02-20T12:46:16;10.50;99.90
32187;DHT22;18686;53.084;8.872;2023-02-20T12:49:01;10.50;99.90
32187;DHT22;18686;53.084;8.872;2023-02-20T12:51:39;10.50;99.90
32187;DHT22;18686;53.084;8.872;2023-02-20T12:54:25;10.60;99.90
32187;DHT22;18686;53.084;8.872;2023-02-20T12:57:03;10.60;99.90
32187;DHT22;18686;53.084;8.872;2023-02-20T12:59:39;10.60;99.90
32187;DHT22;18686;53.084;8.872;2023-02-20T13:02:19;10.60;99.90
32187;DHT22;18686;53.084;8.872;2023-02-20T13:05:12;10.60;99.90
32187;DHT22;18686;53.084;8.872;2023-02-20T13:07:45;10.60;99.90
32187;DHT22;18686;53.084;8.872;2023-02-20T13:10:16;10.60;99.90
32187;DHT22;18686;53.084;8.872;2023-02-20T13:12:45;10.70;99.90
32187;DHT22;18686;53.084;8.872;2023-02-20T13:15:32;10.70;99.90
32187;DHT22;18686;53.084;8.872;2023-02-20T13:18:06;10.70;99.90
32187;DHT22;18686;53.084;8.872;2023-02-20T13:20:44;10.70;99.90
32187;DHT22;18686;53.084;8.872;2023-02-20T13:23:28;10.70;99.90
32187;DHT22;18686;53.084;8.872;2023-02-20T13:25:57;10.70;99.90
32187;DHT22;18686;53.084;8.872;2023-02-20T13:28:43;10.70;99.90
32187;DHT22;18686;53.084;8.872;2023-02-20T13:31:14;10.70;99.90
32187;DHT22;18686;53.084;8.872;2023-02-20T13:33:45;10.60;99.90
32187;DHT22;18686;53.084;8.872;2023-02-20T13:36:37;10.60;99.90
32187;DHT22;18686;53.084;8.872;2023-02-20T13:42:29;10.60;99.90
32187;DHT22;18686;53.084;8.872;2023-02-20T13:44:58;10.60;99.90
32187;DHT22;18686;53.084;8.872;2023-02-20T13:47:37;10.60;99.90
32187;DHT22;18686;53.084;8.872;2023-02-20T13:50:29;10.50;99.90
32187;DHT22;18686;53.084;8.872;2023-02-20T13:53:03;10.50;99.90
32187;DHT22;18686;53.084;8.872;2023-02-20T13:55:32;10.40;99.90
32187;DHT22;18686;53.084;8.872;2023-02-20T13:58:04;10.40;99.90
32187;DHT22;18686;53.084;8.872;2023-02-20T14:00:43;10.40;99.90
32187;DHT22;18686;53.084;8.872;2023-02-20T14:03:17;10.30;99.90
32187;DHT22;18686;53.084;8.872;2023-02-20T14:05:59;10.30;99.90
32187;DHT22;18686;53.084;8.872;2023-02-20T14:08:29;10.20;99.90
32187;DHT22;18686;53.084;8.872;2023-02-20T14:11:04;10.20;99.90
32187;DHT22;18686;53.084;8.872;2023-02-20T14:13:33;10.10;99.90
32187;DHT22;18686;53.084;8.872;2023-02-20T14:16:23;10.10;99.90
32187;DHT22;18686;53.084;8.872;2023-02-20T14:18:56;10.20;99.90
32187;DHT22;18686;53.084;8.872;2023-02-20T14:21:25;10.20;99.90
32187;DHT22;18686;53.084;8.872;2023-02-20T14:23:55;10.20;99.90
32187;DHT22;18686;53.084;8.872;2023-02-20T14:26:25;10.20;99.90
32187;DHT22;18686;53.084;8.872;2023-02-20T14:28:56;10.20;99.90
32187;DHT22;18686;53.084;8.872;2023-02-20T14:31:26;10.30;99.90
32187;DHT22;18686;53.084;8.872;2023-02-20T14:33:57;10.40;99.90
32187;DHT22;18686;53.084;8.872;2023-02-20T14:36:55;10.40;99.90
32187;DHT22;18686;53.084;8.872;2023-02-20T14:39:37;10.50;99.90
32187;DHT22;18686;53.084;8.872;2023-02-20T14:42:14;10.50;99.90
32187;DHT22;18686;53.084;8.872;2023-02-20T14:44:47;10.50;99.90
32187;DHT22;18686;53.084;8.872;2023-02-20T14:47:17;10.50;99.90
32187;DHT22;18686;53.084;8.872;2023-02-20T14:49:45;10.50;99.90
32187;DHT22;18686;53.084;8.872;2023-02-20T14:52:19;10.50;99.90
32187;DHT22;18686;53.084;8.872;2023-02-20T14:54:57;10.50;99.90
32187;DHT22;18686;53.084;8.872;2023-02-20T14:57:26;10.50;99.90
32187;DHT22;18686;53.084;8.872;2023-02-20T15:00:22;10.50;99.90
32187;DHT22;18686;53.084;8.872;2023-02-20T15:02:52;10.50;99.90
32187;DHT22;18686;53.084;8.872;2023-02-20T15:05:27;10.60;99.90
32187;DHT22;18686;53.084;8.872;2023-02-20T15:08:02;10.60;99.90
32187;DHT22;18686;53.084;8.872;2023-02-20T15:10:35;10.60;99.90
32187;DHT22;18686;53.084;8.872;2023-02-20T15:13:07;10.60;99.90
32187;DHT22;18686;53.084;8.872;2023-02-20T15:15:37;10.60;99.90
32187;DHT22;18686;53.084;8.872;2023-02-20T15:18:07;10.70;99.90
32187;DHT22;18686;53.084;8.872;2023-02-20T15:20:39;10.70;99.90
32187;DHT22;18686;53.084;8.872;2023-02-20T15:23:10;10.70;99.90
32187;DHT22;18686;53.084;8.872;2023-02-20T15:25:47;10.70;99.90
32187;DHT22;18686;53.084;8.872;2023-02-20T15:28:25;10.70;99.90
32187;DHT22;18686;53.084;8.872;2023-02-20T15:31:12;10.70;99.90
32187;DHT22;18686;53.084;8.872;2023-02-20T15:33:50;10.70;99.90
32187;DHT22;18686;53.084;8.872;2023-02-20T15:36:21;10.70;99.90
32187;DHT22;18686;53.084;8.872;2023-02-20T15:38:51;10.60;99.90
32187;DHT22;18686;53.084;8.872;2023-02-20T15:41:23;10.70;99.90
32187;DHT22;18686;53.084;8.872;2023-02-20T15:43:51;10.70;99.90
32187;DHT22;18686;53.084;8.872;2023-02-20T15:46:19;10.70;99.90
32187;DHT22;18686;53.084;8.872;2023-02-20T15:48:48;10.70;99.90
32187;DHT22;18686;53.084;8.872;2023-02-20T15:51:19;10.80;99.90
32187;DHT22;18686;53.084;8.872;2023-02-20T15:53:49;10.70;99.90
32187;DHT22;18686;53.084;8.872;2023-02-20T15:56:18;10.70;99.90
32187;DHT22;18686;53.084;8.872;2023-02-20T15:58:48;10.70;99.90
32187;DHT22;18686;53.084;8.872;2023-02-20T16:01:17;10.80;99.90
32187;DHT22;18686;53.084;8.872;2023-02-20T16:03:46;10.80;99.90
32187;DHT22;18686;53.084;8.872;2023-02-20T16:06:19;10.80;99.90
32187;DHT22;18686;53.084;8.872;2023-02-20T16:08:48;10.80;99.90
32187;DHT22;18686;53.084;8.872;2023-02-20T16:11:17;10.80;99.90
32187;DHT22;18686;53.084;8.872;2023-02-20T16:13:51;10.80;99.90
32187;DHT22;18686;53.084;8.872;2023-02-20T16:16:21;10.80;99.90
32187;DHT22;18686;53.084;8.872;2023-02-20T16:18:51;10.80;99.90
32187;DHT22;18686;53.084;8.872;2023-02-20T16:21:22;10.70;99.90
32187;DHT22;18686;53.084;8.872;2023-02-20T16:23:50;10.70;99.90
32187;DHT22;18686;53.084;8.872;2023-02-20T16:26:20;10.80;99.90